sensor_id;sensor_type;location;lat;lon;timestamp;P1;durP1;ratioP1;P2;durP2;ratioP2
18114;SDS011;9184;54.390;18.620;2023-03-31T00:00:25;12.98;;;8.30;;
18114;SDS011;9184;54.390;18.620;2023-03-31T00:00:56;18.73;;;8.80;;
18114;SDS011;9184;54.390;18.620;2023-03-31T00:01:29;18.83;;;9.45;;
18114;SDS011;9184;54.390;18.620;2023-03-31T00:02:03;13.00;;;8.40;;
18114;SDS011;9184;54.390;18.620;2023-03-31T00:02:36;20.35;;;9.00;;
18114;SDS011;9184;54.390;18.620;2023-03-31T00:03:07;12.80;;;8.60;;
18114;SDS011;9184;54.390;18.620;2023-03-31T00:03:39;17.83;;;8.70;;
18114;SDS011;9184;54.390;18.620;2023-03-31T00:04:12;15.90;;;9.55;;
18114;SDS011;9184;54.390;18.620;2023-03-31T00:04:43;17.77;;;9.35;;
18114;SDS011;9184;54.390;18.620;2023-03-31T00:05:15;15.65;;;9.13;;
18114;SDS011;9184;54.390;18.620;2023-03-31T00:05:48;11.60;;;8.18;;
18114;SDS011;9184;54.390;18.620;2023-03-31T00:06:22;19.73;;;9.85;;
18114;SDS011;9184;54.390;18.620;2023-03-31T00:06:52;22.50;;;9.50;;
18114;SDS011;9184;54.390;18.620;2023-03-31T00:07:35;16.85;;;8.40;;
18114;SDS011;9184;54.390;18.620;2023-03-31T00:08:09;13.18;;;9.48;;
18114;SDS011;9184;54.390;18.620;2023-03-31T00:08:43;18.77;;;8.20;;
18114;SDS011;9184;54.390;18.620;2023-03-31T00:09:14;15.32;;;7.57;;
18114;SDS011;9184;54.390;18.620;2023-03-31T00:09:48;15.00;;;8.45;;
18114;SDS011;9184;54.390;18.620;2023-03-31T00:10:18;16.95;;;8.38;;
18114;SDS011;9184;54.390;18.620;2023-03-31T00:10:49;13.27;;;7.78;;
18114;SDS011;9184;54.390;18.620;2023-03-31T00:11:20;12.43;;;7.88;;
18114;SDS011;9184;54.390;18.620;2023-03-31T00:11:51;17.75;;;9.55;;
18114;SDS011;9184;54.390;18.620;2023-03-31T00:12:21;19.10;;;8.65;;
18114;SDS011;9184;54.390;18.620;2023-03-31T00:12:53;17.65;;;8.80;;
18114;SDS011;9184;54.390;18.620;2023-03-31T00:13:23;20.45;;;8.68;;
18114;SDS011;9184;54.390;18.620;2023-03-31T00:13:54;13.82;;;8.02;;
18114;SDS011;9184;54.390;18.620;2023-03-31T00:14:25;18.90;;;8.98;;
18114;SDS011;9184;54.390;18.620;2023-03-31T00:14:57;16.73;;;8.00;;
18114;SDS011;9184;54.390;18.620;2023-03-31T00:15:28;21.70;;;9.27;;
18114;SDS011;9184;54.390;18.620;2023-03-31T00:16:01;17.55;;;8.73;;
18114;SDS011;9184;54.390;18.620;2023-03-31T00:16:32;18.20;;;8.80;;
18114;SDS011;9184;54.390;18.620;2023-03-31T00:17:04;16.00;;;8.50;;
18114;SDS011;9184;54.390;18.620;2023-03-31T00:17:35;14.32;;;8.23;;
18114;SDS011;9184;54.390;18.620;2023-03-31T00:18:06;21.83;;;9.73;;
18114;SDS011;9184;54.390;18.620;2023-03-31T00:18:36;15.63;;;8.40;;
18114;SDS011;9184;54.390;18.620;2023-03-31T00:19:10;16.25;;;7.88;;
18114;SDS011;9184;54.390;18.620;2023-03-31T00:19:47;22.77;;;9.45;;
18114;SDS011;9184;54.390;18.620;2023-03-31T00:20:19;20.65;;;9.20;;
18114;SDS011;9184;54.390;18.620;2023-03-31T00:20:52;17.73;;;9.18;;
18114;SDS011;9184;54.390;18.620;2023-03-31T00:21:22;14.88;;;7.93;;
18114;SDS011;9184;54.390;18.620;2023-03-31T00:21:58;11.57;;;7.90;;
18114;SDS011;9184;54.390;18.620;2023-03-31T00:22:31;17.98;;;7.95;;
18114;SDS011;9184;54.390;18.620;2023-03-31T00:23:02;19.70;;;8.77;;
18114;SDS011;9184;54.390;18.620;2023-03-31T00:23:32;18.90;;;8.15;;
18114;SDS011;9184;54.390;18.620;2023-03-31T00:24:05;20.10;;;8.70;;
18114;SDS011;9184;54.390;18.620;2023-03-31T00:24:36;13.23;;;7.75;;
18114;SDS011;9184;54.390;18.620;2023-03-31T00:25:08;13.63;;;7.45;;
18114;SDS011;9184;54.390;18.620;2023-03-31T00:25:40;13.80;;;7.70;;
18114;SDS011;9184;54.390;18.620;2023-03-31T00:26:10;17.13;;;8.75;;
18114;SDS011;9184;54.390;18.620;2023-03-31T00:26:41;19.05;;;8.25;;
18114;SDS011;9184;54.390;18.620;2023-03-31T00:27:12;20.88;;;8.60;;
18114;SDS011;9184;54.390;18.620;2023-03-31T00:27:43;18.27;;;7.93;;
18114;SDS011;9184;54.390;18.620;2023-03-31T00:28:14;16.33;;;7.00;;
18114;SDS011;9184;54.390;18.620;2023-03-31T00:28:46;14.85;;;7.25;;
18114;SDS011;9184;54.390;18.620;2023-03-31T00:29:16;17.98;;;8.00;;
18114;SDS011;9184;54.390;18.620;2023-03-31T00:29:46;15.18;;;8.27;;
18114;SDS011;9184;54.390;18.620;2023-03-31T00:30:21;16.40;;;7.75;;
18114;SDS011;9184;54.390;18.620;2023-03-31T00:30:51;21.38;;;7.97;;
18114;SDS011;9184;54.390;18.620;2023-03-31T00:31:22;14.77;;;9.35;;
18114;SDS011;9184;54.390;18.620;2023-03-31T00:31:54;18.30;;;8.07;;
18114;SDS011;9184;54.390;18.620;2023-03-31T00:32:25;16.15;;;8.43;;
18114;SDS011;9184;54.390;18.620;2023-03-31T00:32:56;16.08;;;8.23;;
18114;SDS011;9184;54.390;18.620;2023-03-31T00:33:28;20.85;;;8.10;;
18114;SDS011;9184;54.390;18.620;2023-03-31T00:33:59;14.80;;;7.75;;
18114;SDS011;9184;54.390;18.620;2023-03-31T00:34:29;16.45;;;8.90;;
18114;SDS011;9184;54.390;18.620;2023-03-31T00:35:01;12.38;;;8.00;;
18114;SDS011;9184;54.390;18.620;2023-03-31T00:35:34;19.35;;;8.27;;
18114;SDS011;9184;54.390;18.620;2023-03-31T00:36:05;14.18;;;7.35;;
18114;SDS011;9184;54.390;18.620;2023-03-31T00:36:38;14.10;;;7.38;;
18114;SDS011;9184;54.390;18.620;2023-03-31T00:37:16;14.98;;;8.23;;
18114;SDS011;9184;54.390;18.620;2023-03-31T00:37:47;15.27;;;7.90;;
18114;SDS011;9184;54.390;18.620;2023-03-31T00:38:18;15.02;;;7.22;;
18114;SDS011;9184;54.390;18.620;2023-03-31T00:38:50;21.00;;;8.15;;
18114;SDS011;9184;54.390;18.620;2023-03-31T00:39:23;14.25;;;7.63;;
18114;SDS011;9184;54.390;18.620;2023-03-31T00:39:54;13.85;;;7.45;;
18114;SDS011;9184;54.390;18.620;2023-03-31T00:40:24;18.13;;;8.15;;
18114;SDS011;9184;54.390;18.620;2023-03-31T00:40:56;15.27;;;7.25;;
18114;SDS011;9184;54.390;18.620;2023-03-31T00:41:26;17.63;;;7.15;;
18114;SDS011;9184;54.390;18.620;2023-03-31T00:41:57;16.88;;;7.55;;
18114;SDS011;9184;54.390;18.620;2023-03-31T00:42:29;15.77;;;7.97;;
18114;SDS011;9184;54.390;18.620;2023-03-31T00:43:00;15.30;;;6.90;;
18114;SDS011;9184;54.390;18.620;2023-03-31T00:43:33;13.70;;;7.22;;
18114;SDS011;9184;54.390;18.620;2023-03-31T00:44:05;14.93;;;7.75;;
18114;SDS011;9184;54.390;18.620;2023-03-31T00:44:38;13.88;;;6.85;;
18114;SDS011;9184;54.390;18.620;2023-03-31T00:45:30;13.43;;;6.97;;
18114;SDS011;9184;54.390;18.620;2023-03-31T00:46:12;14.63;;;6.55;;
18114;SDS011;9184;54.390;18.620;2023-03-31T00:46:49;12.13;;;7.10;;
18114;SDS011;9184;54.390;18.620;2023-03-31T00:47:22;14.07;;;6.53;;
18114;SDS011;9184;54.390;18.620;2023-03-31T00:47:53;14.50;;;6.40;;
18114;SDS011;9184;54.390;18.620;2023-03-31T00:48:25;14.43;;;7.03;;
18114;SDS011;9184;54.390;18.620;2023-03-31T00:48:56;19.23;;;8.65;;
18114;SDS011;9184;54.390;18.620;2023-03-31T00:49:27;15.57;;;8.35;;
18114;SDS011;9184;54.390;18.620;2023-03-31T00:49:59;14.15;;;7.20;;
18114;SDS011;9184;54.390;18.620;2023-03-31T00:50:32;15.27;;;7.03;;
18114;SDS011;9184;54.390;18.620;2023-03-31T00:51:05;15.40;;;6.97;;
18114;SDS011;9184;54.390;18.620;2023-03-31T00:51:36;15.68;;;6.70;;
18114;SDS011;9184;54.390;18.620;2023-03-31T00:52:08;16.58;;;7.20;;
18114;SDS011;9184;54.390;18.620;2023-03-31T00:52:43;16.67;;;7.63;;
18114;SDS011;9184;54.390;18.620;2023-03-31T00:53:15;15.32;;;7.10;;
18114;SDS011;9184;54.390;18.620;2023-03-31T00:53:51;12.88;;;7.25;;
18114;SDS011;9184;54.390;18.620;2023-03-31T00:54:24;14.13;;;6.78;;
18114;SDS011;9184;54.390;18.620;2023-03-31T00:54:58;16.33;;;6.65;;
18114;SDS011;9184;54.390;18.620;2023-03-31T00:55:31;17.02;;;7.10;;
18114;SDS011;9184;54.390;18.620;2023-03-31T00:56:04;17.58;;;6.40;;
18114;SDS011;9184;54.390;18.620;2023-03-31T00:56:38;13.32;;;6.45;;
18114;SDS011;9184;54.390;18.620;2023-03-31T00:57:09;19.17;;;7.60;;
18114;SDS011;9184;54.390;18.620;2023-03-31T00:57:40;17.20;;;7.10;;
18114;SDS011;9184;54.390;18.620;2023-03-31T00:58:13;14.40;;;7.18;;
18114;SDS011;9184;54.390;18.620;2023-03-31T00:58:49;12.30;;;6.63;;
18114;SDS011;9184;54.390;18.620;2023-03-31T00:59:19;18.88;;;7.13;;
18114;SDS011;9184;54.390;18.620;2023-03-31T00:59:53;13.02;;;6.80;;
18114;SDS011;9184;54.390;18.620;2023-03-31T01:00:26;14.40;;;6.43;;
18114;SDS011;9184;54.390;18.620;2023-03-31T01:00:59;10.82;;;6.03;;
18114;SDS011;9184;54.390;18.620;2023-03-31T01:01:31;15.65;;;6.53;;
18114;SDS011;9184;54.390;18.620;2023-03-31T01:02:04;15.65;;;6.45;;
18114;SDS011;9184;54.390;18.620;2023-03-31T01:02:35;11.75;;;6.13;;
18114;SDS011;9184;54.390;18.620;2023-03-31T01:03:10;14.80;;;7.28;;
18114;SDS011;9184;54.390;18.620;2023-03-31T01:03:41;16.92;;;6.57;;
18114;SDS011;9184;54.390;18.620;2023-03-31T01:04:15;13.23;;;6.50;;
18114;SDS011;9184;54.390;18.620;2023-03-31T01:04:47;13.00;;;6.75;;
18114;SDS011;9184;54.390;18.620;2023-03-31T01:05:20;15.95;;;6.15;;
18114;SDS011;9184;54.390;18.620;2023-03-31T01:05:52;12.35;;;6.40;;
18114;SDS011;9184;54.390;18.620;2023-03-31T01:06:24;16.65;;;6.85;;
18114;SDS011;9184;54.390;18.620;2023-03-31T01:07:01;12.73;;;6.50;;
18114;SDS011;9184;54.390;18.620;2023-03-31T01:07:34;10.27;;;6.05;;
18114;SDS011;9184;54.390;18.620;2023-03-31T01:08:06;17.85;;;6.72;;
18114;SDS011;9184;54.390;18.620;2023-03-31T01:08:38;19.45;;;6.35;;
18114;SDS011;9184;54.390;18.620;2023-03-31T01:09:09;14.40;;;6.35;;
18114;SDS011;9184;54.390;18.620;2023-03-31T01:09:40;14.20;;;5.82;;
18114;SDS011;9184;54.390;18.620;2023-03-31T01:10:12;12.38;;;6.13;;
18114;SDS011;9184;54.390;18.620;2023-03-31T01:10:44;15.68;;;5.90;;
18114;SDS011;9184;54.390;18.620;2023-03-31T01:11:17;12.60;;;5.40;;
18114;SDS011;9184;54.390;18.620;2023-03-31T01:11:49;16.02;;;6.28;;
18114;SDS011;9184;54.390;18.620;2023-03-31T01:12:19;15.93;;;6.45;;
18114;SDS011;9184;54.390;18.620;2023-03-31T01:12:51;15.73;;;6.57;;
18114;SDS011;9184;54.390;18.620;2023-03-31T01:13:24;12.20;;;5.32;;
18114;SDS011;9184;54.390;18.620;2023-03-31T01:13:56;13.32;;;6.32;;
18114;SDS011;9184;54.390;18.620;2023-03-31T01:14:27;14.90;;;5.82;;
18114;SDS011;9184;54.390;18.620;2023-03-31T01:14:59;16.98;;;5.97;;
18114;SDS011;9184;54.390;18.620;2023-03-31T01:15:30;13.68;;;6.78;;
18114;SDS011;9184;54.390;18.620;2023-03-31T01:16:02;16.50;;;6.78;;
18114;SDS011;9184;54.390;18.620;2023-03-31T01:16:33;13.25;;;5.65;;
18114;SDS011;9184;54.390;18.620;2023-03-31T01:17:04;11.02;;;5.40;;
18114;SDS011;9184;54.390;18.620;2023-03-31T01:17:38;16.48;;;5.63;;
18114;SDS011;9184;54.390;18.620;2023-03-31T01:18:09;19.73;;;6.82;;
18114;SDS011;9184;54.390;18.620;2023-03-31T01:18:41;14.57;;;5.88;;
18114;SDS011;9184;54.390;18.620;2023-03-31T01:19:17;14.48;;;5.90;;
18114;SDS011;9184;54.390;18.620;2023-03-31T01:19:52;16.48;;;6.32;;
18114;SDS011;9184;54.390;18.620;2023-03-31T01:20:28;13.98;;;6.85;;
18114;SDS011;9184;54.390;18.620;2023-03-31T01:21:17;10.10;;;5.32;;
18114;SDS011;9184;54.390;18.620;2023-03-31T01:22:00;13.02;;;6.15;;
18114;SDS011;9184;54.390;18.620;2023-03-31T01:23:32;15.18;;;5.75;;
18114;SDS011;9184;54.390;18.620;2023-03-31T01:24:15;14.90;;;6.60;;
18114;SDS011;9184;54.390;18.620;2023-03-31T01:24:57;13.57;;;5.75;;
18114;SDS011;9184;54.390;18.620;2023-03-31T01:27:27;12.50;;;5.88;;
18114;SDS011;9184;54.390;18.620;2023-03-31T01:28:07;10.77;;;5.63;;
18114;SDS011;9184;54.390;18.620;2023-03-31T01:28:41;16.13;;;6.05;;
18114;SDS011;9184;54.390;18.620;2023-03-31T01:29:27;18.10;;;6.20;;
18114;SDS011;9184;54.390;18.620;2023-03-31T01:30:10;12.68;;;5.60;;
18114;SDS011;9184;54.390;18.620;2023-03-31T01:30:59;9.93;;;5.38;;
18114;SDS011;9184;54.390;18.620;2023-03-31T01:35:01;17.48;;;5.97;;
18114;SDS011;9184;54.390;18.620;2023-03-31T01:35:52;11.70;;;5.90;;
18114;SDS011;9184;54.390;18.620;2023-03-31T01:36:47;10.95;;;5.63;;
18114;SDS011;9184;54.390;18.620;2023-03-31T01:37:42;14.50;;;5.78;;
18114;SDS011;9184;54.390;18.620;2023-03-31T01:38:28;13.73;;;5.70;;
18114;SDS011;9184;54.390;18.620;2023-03-31T01:39:07;14.10;;;5.63;;
18114;SDS011;9184;54.390;18.620;2023-03-31T01:39:59;9.38;;;5.20;;
18114;SDS011;9184;54.390;18.620;2023-03-31T01:41:26;11.40;;;5.43;;
18114;SDS011;9184;54.390;18.620;2023-03-31T01:42:00;12.20;;;5.93;;
18114;SDS011;9184;54.390;18.620;2023-03-31T01:42:34;12.15;;;5.20;;
18114;SDS011;9184;54.390;18.620;2023-03-31T01:43:07;8.93;;;5.07;;
18114;SDS011;9184;54.390;18.620;2023-03-31T01:43:40;12.73;;;5.07;;
18114;SDS011;9184;54.390;18.620;2023-03-31T01:44:15;18.35;;;5.38;;
18114;SDS011;9184;54.390;18.620;2023-03-31T01:44:52;15.73;;;5.43;;
18114;SDS011;9184;54.390;18.620;2023-03-31T01:45:30;14.30;;;5.85;;
18114;SDS011;9184;54.390;18.620;2023-03-31T01:46:04;10.80;;;5.20;;
18114;SDS011;9184;54.390;18.620;2023-03-31T01:46:42;9.18;;;4.88;;
18114;SDS011;9184;54.390;18.620;2023-03-31T01:47:15;12.43;;;5.45;;
18114;SDS011;9184;54.390;18.620;2023-03-31T01:47:53;11.15;;;5.90;;
18114;SDS011;9184;54.390;18.620;2023-03-31T01:48:30;16.60;;;6.00;;
18114;SDS011;9184;54.390;18.620;2023-03-31T01:49:06;13.02;;;5.93;;
18114;SDS011;9184;54.390;18.620;2023-03-31T01:49:40;14.75;;;5.30;;
18114;SDS011;9184;54.390;18.620;2023-03-31T01:50:15;15.98;;;6.03;;
18114;SDS011;9184;54.390;18.620;2023-03-31T01:50:49;14.23;;;6.00;;
18114;SDS011;9184;54.390;18.620;2023-03-31T01:51:25;12.02;;;5.47;;
18114;SDS011;9184;54.390;18.620;2023-03-31T01:51:59;11.70;;;5.38;;
18114;SDS011;9184;54.390;18.620;2023-03-31T01:52:34;12.02;;;5.35;;
18114;SDS011;9184;54.390;18.620;2023-03-31T01:53:10;15.48;;;5.75;;
18114;SDS011;9184;54.390;18.620;2023-03-31T01:53:47;14.15;;;5.13;;
18114;SDS011;9184;54.390;18.620;2023-03-31T01:54:20;8.23;;;5.38;;
18114;SDS011;9184;54.390;18.620;2023-03-31T01:54:54;11.95;;;5.82;;
18114;SDS011;9184;54.390;18.620;2023-03-31T01:55:29;16.30;;;6.22;;
18114;SDS011;9184;54.390;18.620;2023-03-31T01:56:03;12.43;;;5.72;;
18114;SDS011;9184;54.390;18.620;2023-03-31T01:56:36;15.90;;;6.57;;
18114;SDS011;9184;54.390;18.620;2023-03-31T01:57:10;11.93;;;5.82;;
18114;SDS011;9184;54.390;18.620;2023-03-31T01:57:44;14.13;;;5.88;;
18114;SDS011;9184;54.390;18.620;2023-03-31T01:58:18;9.90;;;5.38;;
18114;SDS011;9184;54.390;18.620;2023-03-31T01:58:52;14.32;;;6.10;;
18114;SDS011;9184;54.390;18.620;2023-03-31T01:59:25;14.60;;;6.75;;
18114;SDS011;9184;54.390;18.620;2023-03-31T02:00:00;10.25;;;5.75;;
18114;SDS011;9184;54.390;18.620;2023-03-31T02:00:31;12.48;;;6.10;;
18114;SDS011;9184;54.390;18.620;2023-03-31T02:01:04;13.73;;;7.00;;
18114;SDS011;9184;54.390;18.620;2023-03-31T02:01:36;12.35;;;6.75;;
18114;SDS011;9184;54.390;18.620;2023-03-31T02:02:09;13.50;;;7.28;;
18114;SDS011;9184;54.390;18.620;2023-03-31T02:02:43;13.32;;;6.28;;
18114;SDS011;9184;54.390;18.620;2023-03-31T02:03:16;13.80;;;7.00;;
18114;SDS011;9184;54.390;18.620;2023-03-31T02:03:52;14.65;;;7.25;;
18114;SDS011;9184;54.390;18.620;2023-03-31T02:04:24;15.00;;;6.93;;
18114;SDS011;9184;54.390;18.620;2023-03-31T02:04:57;16.60;;;6.70;;
18114;SDS011;9184;54.390;18.620;2023-03-31T02:05:31;15.77;;;7.30;;
18114;SDS011;9184;54.390;18.620;2023-03-31T02:06:04;23.65;;;6.85;;
18114;SDS011;9184;54.390;18.620;2023-03-31T02:06:39;13.00;;;6.60;;
18114;SDS011;9184;54.390;18.620;2023-03-31T02:07:11;19.13;;;7.65;;
18114;SDS011;9184;54.390;18.620;2023-03-31T02:07:45;15.60;;;8.20;;
18114;SDS011;9184;54.390;18.620;2023-03-31T02:08:19;12.52;;;6.97;;
18114;SDS011;9184;54.390;18.620;2023-03-31T02:08:52;15.52;;;6.63;;
18114;SDS011;9184;54.390;18.620;2023-03-31T02:09:25;12.88;;;6.70;;
18114;SDS011;9184;54.390;18.620;2023-03-31T02:09:59;10.75;;;6.10;;
18114;SDS011;9184;54.390;18.620;2023-03-31T02:10:32;18.63;;;7.72;;
18114;SDS011;9184;54.390;18.620;2023-03-31T02:11:04;13.40;;;6.63;;
18114;SDS011;9184;54.390;18.620;2023-03-31T02:11:35;15.23;;;7.18;;
18114;SDS011;9184;54.390;18.620;2023-03-31T02:12:07;19.02;;;7.05;;
18114;SDS011;9184;54.390;18.620;2023-03-31T02:12:39;14.82;;;7.53;;
18114;SDS011;9184;54.390;18.620;2023-03-31T02:13:13;18.75;;;7.95;;
18114;SDS011;9184;54.390;18.620;2023-03-31T02:13:46;23.58;;;8.23;;
18114;SDS011;9184;54.390;18.620;2023-03-31T02:14:18;17.05;;;7.55;;
18114;SDS011;9184;54.390;18.620;2023-03-31T02:14:51;17.52;;;6.70;;
18114;SDS011;9184;54.390;18.620;2023-03-31T02:15:25;18.52;;;7.28;;
18114;SDS011;9184;54.390;18.620;2023-03-31T02:15:59;18.13;;;7.05;;
18114;SDS011;9184;54.390;18.620;2023-03-31T02:16:31;22.00;;;6.72;;
18114;SDS011;9184;54.390;18.620;2023-03-31T02:17:06;14.55;;;7.35;;
18114;SDS011;9184;54.390;18.620;2023-03-31T02:17:43;18.70;;;7.50;;
18114;SDS011;9184;54.390;18.620;2023-03-31T02:18:15;14.32;;;6.88;;
18114;SDS011;9184;54.390;18.620;2023-03-31T02:18:48;14.38;;;6.55;;
18114;SDS011;9184;54.390;18.620;2023-03-31T02:19:22;21.42;;;7.93;;
18114;SDS011;9184;54.390;18.620;2023-03-31T02:19:53;12.15;;;7.22;;
18114;SDS011;9184;54.390;18.620;2023-03-31T02:20:24;18.13;;;7.93;;
18114;SDS011;9184;54.390;18.620;2023-03-31T02:20:57;18.20;;;7.30;;
18114;SDS011;9184;54.390;18.620;2023-03-31T02:21:28;17.50;;;7.82;;
18114;SDS011;9184;54.390;18.620;2023-03-31T02:22:00;18.05;;;7.65;;
18114;SDS011;9184;54.390;18.620;2023-03-31T02:22:33;18.20;;;7.45;;
18114;SDS011;9184;54.390;18.620;2023-03-31T02:23:05;21.38;;;7.72;;
18114;SDS011;9184;54.390;18.620;2023-03-31T02:23:36;17.70;;;8.40;;
18114;SDS011;9184;54.390;18.620;2023-03-31T02:24:09;19.35;;;9.07;;
18114;SDS011;9184;54.390;18.620;2023-03-31T02:24:40;25.23;;;9.05;;
18114;SDS011;9184;54.390;18.620;2023-03-31T02:25:12;25.40;;;8.68;;
18114;SDS011;9184;54.390;18.620;2023-03-31T02:25:46;19.92;;;8.35;;
18114;SDS011;9184;54.390;18.620;2023-03-31T02:26:18;21.63;;;7.97;;
18114;SDS011;9184;54.390;18.620;2023-03-31T02:26:52;23.58;;;8.32;;
18114;SDS011;9184;54.390;18.620;2023-03-31T02:27:24;18.40;;;8.38;;
18114;SDS011;9184;54.390;18.620;2023-03-31T02:27:55;19.38;;;8.20;;
18114;SDS011;9184;54.390;18.620;2023-03-31T02:28:28;18.42;;;8.00;;
18114;SDS011;9184;54.390;18.620;2023-03-31T02:28:59;18.85;;;7.88;;
18114;SDS011;9184;54.390;18.620;2023-03-31T02:29:29;16.17;;;7.38;;
18114;SDS011;9184;54.390;18.620;2023-03-31T02:30:00;17.05;;;6.95;;
18114;SDS011;9184;54.390;18.620;2023-03-31T02:30:41;18.67;;;8.43;;
18114;SDS011;9184;54.390;18.620;2023-03-31T02:31:19;13.07;;;7.68;;
18114;SDS011;9184;54.390;18.620;2023-03-31T02:31:54;21.48;;;8.20;;
18114;SDS011;9184;54.390;18.620;2023-03-31T02:32:28;17.50;;;8.48;;
18114;SDS011;9184;54.390;18.620;2023-03-31T02:33:01;19.90;;;8.40;;
18114;SDS011;9184;54.390;18.620;2023-03-31T02:33:33;22.75;;;9.23;;
18114;SDS011;9184;54.390;18.620;2023-03-31T02:34:04;19.55;;;8.57;;
18114;SDS011;9184;54.390;18.620;2023-03-31T02:34:34;17.83;;;8.38;;
18114;SDS011;9184;54.390;18.620;2023-03-31T02:35:07;18.58;;;8.15;;
18114;SDS011;9184;54.390;18.620;2023-03-31T02:35:38;23.10;;;9.48;;
18114;SDS011;9184;54.390;18.620;2023-03-31T02:36:09;22.60;;;8.07;;
18114;SDS011;9184;54.390;18.620;2023-03-31T02:36:40;18.10;;;9.00;;
18114;SDS011;9184;54.390;18.620;2023-03-31T02:37:13;20.60;;;8.95;;
18114;SDS011;9184;54.390;18.620;2023-03-31T02:37:43;24.50;;;8.75;;
18114;SDS011;9184;54.390;18.620;2023-03-31T02:38:14;17.70;;;8.95;;
18114;SDS011;9184;54.390;18.620;2023-03-31T02:38:46;14.10;;;7.93;;
18114;SDS011;9184;54.390;18.620;2023-03-31T02:39:20;14.82;;;8.35;;
18114;SDS011;9184;54.390;18.620;2023-03-31T02:39:52;16.65;;;8.60;;
18114;SDS011;9184;54.390;18.620;2023-03-31T02:40:25;23.50;;;7.25;;
18114;SDS011;9184;54.390;18.620;2023-03-31T02:40:58;14.15;;;7.55;;
18114;SDS011;9184;54.390;18.620;2023-03-31T02:41:28;16.75;;;8.15;;
18114;SDS011;9184;54.390;18.620;2023-03-31T02:42:00;13.38;;;7.35;;
18114;SDS011;9184;54.390;18.620;2023-03-31T02:42:36;18.05;;;7.95;;
18114;SDS011;9184;54.390;18.620;2023-03-31T02:43:06;13.73;;;7.15;;
18114;SDS011;9184;54.390;18.620;2023-03-31T02:43:38;15.50;;;6.80;;
18114;SDS011;9184;54.390;18.620;2023-03-31T02:44:08;16.92;;;7.88;;
18114;SDS011;9184;54.390;18.620;2023-03-31T02:44:40;13.25;;;7.75;;
18114;SDS011;9184;54.390;18.620;2023-03-31T02:46:01;15.30;;;7.32;;
18114;SDS011;9184;54.390;18.620;2023-03-31T02:46:31;17.88;;;8.35;;
18114;SDS011;9184;54.390;18.620;2023-03-31T02:47:03;15.27;;;7.97;;
18114;SDS011;9184;54.390;18.620;2023-03-31T02:47:35;18.95;;;7.60;;
18114;SDS011;9184;54.390;18.620;2023-03-31T02:48:06;11.35;;;7.15;;
18114;SDS011;9184;54.390;18.620;2023-03-31T02:48:38;19.15;;;8.10;;
18114;SDS011;9184;54.390;18.620;2023-03-31T02:49:10;17.90;;;8.65;;
18114;SDS011;9184;54.390;18.620;2023-03-31T02:49:42;16.15;;;7.90;;
18114;SDS011;9184;54.390;18.620;2023-03-31T02:50:14;15.38;;;7.97;;
18114;SDS011;9184;54.390;18.620;2023-03-31T02:51:02;22.83;;;8.05;;
18114;SDS011;9184;54.390;18.620;2023-03-31T02:52:33;18.17;;;7.78;;
18114;SDS011;9184;54.390;18.620;2023-03-31T02:53:07;18.42;;;7.47;;
18114;SDS011;9184;54.390;18.620;2023-03-31T02:53:47;19.58;;;8.15;;
18114;SDS011;9184;54.390;18.620;2023-03-31T02:54:35;16.27;;;7.55;;
18114;SDS011;9184;54.390;18.620;2023-03-31T02:55:27;16.77;;;7.15;;
18114;SDS011;9184;54.390;18.620;2023-03-31T02:56:12;17.70;;;6.93;;
18114;SDS011;9184;54.390;18.620;2023-03-31T02:56:51;13.07;;;7.47;;
18114;SDS011;9184;54.390;18.620;2023-03-31T02:58:22;13.55;;;7.30;;
18114;SDS011;9184;54.390;18.620;2023-03-31T02:59:48;15.73;;;6.95;;
18114;SDS011;9184;54.390;18.620;2023-03-31T03:00:22;14.52;;;7.80;;
18114;SDS011;9184;54.390;18.620;2023-03-31T03:01:01;16.38;;;7.40;;
18114;SDS011;9184;54.390;18.620;2023-03-31T03:01:38;12.20;;;7.38;;
18114;SDS011;9184;54.390;18.620;2023-03-31T03:02:13;14.88;;;7.88;;
18114;SDS011;9184;54.390;18.620;2023-03-31T03:02:50;18.13;;;8.02;;
18114;SDS011;9184;54.390;18.620;2023-03-31T03:03:28;17.23;;;7.93;;
18114;SDS011;9184;54.390;18.620;2023-03-31T03:04:07;19.10;;;7.63;;
18114;SDS011;9184;54.390;18.620;2023-03-31T03:04:46;14.55;;;7.75;;
18114;SDS011;9184;54.390;18.620;2023-03-31T03:05:21;17.05;;;8.13;;
18114;SDS011;9184;54.390;18.620;2023-03-31T03:05:57;18.90;;;6.95;;
18114;SDS011;9184;54.390;18.620;2023-03-31T03:06:35;18.77;;;7.68;;
18114;SDS011;9184;54.390;18.620;2023-03-31T03:07:09;19.38;;;8.25;;
18114;SDS011;9184;54.390;18.620;2023-03-31T03:07:44;15.15;;;8.48;;
18114;SDS011;9184;54.390;18.620;2023-03-31T03:08:20;18.35;;;7.57;;
18114;SDS011;9184;54.390;18.620;2023-03-31T03:09:00;17.67;;;8.13;;
18114;SDS011;9184;54.390;18.620;2023-03-31T03:09:35;18.17;;;9.30;;
18114;SDS011;9184;54.390;18.620;2023-03-31T03:10:09;17.38;;;8.32;;
18114;SDS011;9184;54.390;18.620;2023-03-31T03:10:43;20.92;;;7.82;;
18114;SDS011;9184;54.390;18.620;2023-03-31T03:11:21;16.30;;;8.38;;
18114;SDS011;9184;54.390;18.620;2023-03-31T03:11:59;21.90;;;7.90;;
18114;SDS011;9184;54.390;18.620;2023-03-31T03:12:37;14.75;;;8.43;;
18114;SDS011;9184;54.390;18.620;2023-03-31T03:13:13;15.90;;;8.40;;
18114;SDS011;9184;54.390;18.620;2023-03-31T03:13:47;20.50;;;8.73;;
18114;SDS011;9184;54.390;18.620;2023-03-31T03:14:21;12.40;;;7.93;;
18114;SDS011;9184;54.390;18.620;2023-03-31T03:14:54;14.32;;;8.77;;
18114;SDS011;9184;54.390;18.620;2023-03-31T03:15:29;15.73;;;7.97;;
18114;SDS011;9184;54.390;18.620;2023-03-31T03:16:02;16.42;;;7.60;;
18114;SDS011;9184;54.390;18.620;2023-03-31T03:16:35;20.75;;;8.15;;
18114;SDS011;9184;54.390;18.620;2023-03-31T03:17:08;16.85;;;8.15;;
18114;SDS011;9184;54.390;18.620;2023-03-31T03:17:42;17.80;;;8.75;;
18114;SDS011;9184;54.390;18.620;2023-03-31T03:18:13;17.73;;;8.60;;
18114;SDS011;9184;54.390;18.620;2023-03-31T03:18:44;17.77;;;9.02;;
18114;SDS011;9184;54.390;18.620;2023-03-31T03:19:22;12.57;;;8.30;;
18114;SDS011;9184;54.390;18.620;2023-03-31T03:19:53;15.90;;;8.65;;
18114;SDS011;9184;54.390;18.620;2023-03-31T03:20:24;18.55;;;8.38;;
18114;SDS011;9184;54.390;18.620;2023-03-31T03:20:55;15.57;;;8.50;;
18114;SDS011;9184;54.390;18.620;2023-03-31T03:21:26;20.38;;;9.35;;
18114;SDS011;9184;54.390;18.620;2023-03-31T03:21:56;24.50;;;8.73;;
18114;SDS011;9184;54.390;18.620;2023-03-31T03:22:28;18.58;;;8.85;;
18114;SDS011;9184;54.390;18.620;2023-03-31T03:22:58;19.55;;;8.75;;
18114;SDS011;9184;54.390;18.620;2023-03-31T03:23:29;17.70;;;8.02;;
18114;SDS011;9184;54.390;18.620;2023-03-31T03:24:02;22.05;;;8.43;;
18114;SDS011;9184;54.390;18.620;2023-03-31T03:24:32;12.73;;;8.25;;
18114;SDS011;9184;54.390;18.620;2023-03-31T03:25:03;14.45;;;7.93;;
18114;SDS011;9184;54.390;18.620;2023-03-31T03:25:35;18.95;;;8.27;;
18114;SDS011;9184;54.390;18.620;2023-03-31T03:26:06;20.05;;;8.52;;
18114;SDS011;9184;54.390;18.620;2023-03-31T03:26:39;14.43;;;8.35;;
18114;SDS011;9184;54.390;18.620;2023-03-31T03:27:11;15.07;;;8.13;;
18114;SDS011;9184;54.390;18.620;2023-03-31T03:27:41;18.08;;;9.02;;
18114;SDS011;9184;54.390;18.620;2023-03-31T03:28:12;20.48;;;9.40;;
18114;SDS011;9184;54.390;18.620;2023-03-31T03:28:43;19.95;;;9.15;;
18114;SDS011;9184;54.390;18.620;2023-03-31T03:29:13;20.80;;;9.50;;
18114;SDS011;9184;54.390;18.620;2023-03-31T03:29:44;20.52;;;8.13;;
18114;SDS011;9184;54.390;18.620;2023-03-31T03:30:14;15.23;;;8.75;;
18114;SDS011;9184;54.390;18.620;2023-03-31T03:30:46;23.52;;;9.13;;
18114;SDS011;9184;54.390;18.620;2023-03-31T03:31:17;22.75;;;9.50;;